KREG

Louisiana Regional Airport

Gonzales, Louisiana, USA
METAR KREG 181315Z AUTO 00000KT M1/4SM FG OVC002 04/04 A3017 RMK AO2 T00420042
Observed Flight Rules
Dec-18 @ 13:15 UTC (21 minutes ago) Instrument Flight Rules
Visibility Clouds Conditions
1/4 miles
  • Overcast at 200' AGL
  • Fog
Temperatures Readings
Current 4°C / 39°F
Dewpoint 4°C / 39°F
Humidity 100%
Altimeter 30.17" Hg
Pressure 1022 hPa
Elevation 4
METAR KREG 181315Z AUTO 00000KT M1/4SM FG OVC002 04/04 A3017 RMK AO2 T00420042
Observed Flight Rules
Dec-18 @ 13:15 UTC
(21 minutes ago)
LIFR
Clouds
  • Overcast at 200' AGL
Conditions
  • Fog
Temperature Dewpoint
4°C / 39°F 4°C / 39°F
Humidity Altimeter Pressure
100% 30.17" Hg 1022 hPa